TSC230 CYYZ-EIDW
Flight info
| Callsign | TSC230 |
|---|---|
| Flight time | N/A |
| Altitude | 37000 |
| Route | VERDO7 IPTOS Q921 AGLUK DCT BAREE N581A TUDEP/M080F390 DCT 52N050W 53N040W 54N030W 55N020W DCT RESNO DCT NETKI/N0448F390 DCT REVNU DCT OLAPO OLAPO4L |
| Aircraft | A333/H-SDE3GHIJ2J3J5M1RVWXY/LB2D1 |
Departure
| Time | N/A |
|---|---|
| Airport | Toronto Pearson International Airport (CYYZ) |
Arrival
| Time | 2026-05-06 18:45 |
|---|---|
| Airport | Dublin Airport (EIDW) |
| Time | Latitude | Longitude | Altitude | Speed | Heading |
|---|---|---|---|---|---|
| 2026-05-06 18:21 | 53.79269 | -7.34179 | 32100 ft | 452 kts | 111° |
| 2026-05-06 18:21 | 53.78173 | -7.29341 | 31187 ft | 442 kts | 103° |
| 2026-05-06 18:21 | 53.77493 | -7.24352 | 30281 ft | 432 kts | 97° |
| 2026-05-06 18:22 | 53.76995 | -7.19447 | 29340 ft | 426 kts | 97° |
| 2026-05-06 18:22 | 53.76519 | -7.14528 | 28370 ft | 421 kts | 97° |
| 2026-05-06 18:22 | 53.76047 | -7.09680 | 27417 ft | 417 kts | 97° |
| 2026-05-06 18:22 | 53.75570 | -7.04869 | 26486 ft | 411 kts | 97° |
| 2026-05-06 18:23 | 53.75092 | -7.00139 | 25566 ft | 406 kts | 98° |
| 2026-05-06 18:23 | 53.74618 | -6.95489 | 24660 ft | 402 kts | 98° |
| 2026-05-06 18:23 | 53.74146 | -6.90897 | 23777 ft | 397 kts | 98° |
| 2026-05-06 18:23 | 53.73675 | -6.86351 | 22935 ft | 392 kts | 98° |
| 2026-05-06 18:24 | 53.73210 | -6.81885 | 22115 ft | 387 kts | 99° |
| 2026-05-06 18:24 | 53.72742 | -6.77419 | 21287 ft | 382 kts | 99° |
| 2026-05-06 18:24 | 53.72283 | -6.73089 | 20462 ft | 378 kts | 99° |
| 2026-05-06 18:24 | 53.71822 | -6.68717 | 19618 ft | 373 kts | 99° |
| 2026-05-06 18:25 | 53.71327 | -6.64497 | 18787 ft | 370 kts | 107° |
| 2026-05-06 18:25 | 53.70182 | -6.60639 | 17927 ft | 365 kts | 129° |
| 2026-05-06 18:25 | 53.68340 | -6.57806 | 17088 ft | 358 kts | 151° |
| 2026-05-06 18:25 | 53.66081 | -6.56328 | 16252 ft | 350 kts | 173° |
| 2026-05-06 18:26 | 53.63697 | -6.56358 | 15387 ft | 341 kts | 195° |
| 2026-05-06 18:26 | 53.61572 | -6.57851 | 14567 ft | 332 kts | 217° |
| 2026-05-06 18:26 | 53.59977 | -6.60586 | 13704 ft | 325 kts | 239° |
| 2026-05-06 18:26 | 53.59185 | -6.64062 | 12838 ft | 320 kts | 262° |
| 2026-05-06 18:27 | 53.59163 | -6.67792 | 12024 ft | 317 kts | 274° |
| 2026-05-06 18:27 | 53.59369 | -6.71442 | 11206 ft | 315 kts | 276° |
| 2026-05-06 18:27 | 53.59618 | -6.75072 | 10371 ft | 313 kts | 276° |
| 2026-05-06 18:27 | 53.59875 | -6.78681 | 9534 ft | 311 kts | 276° |
| 2026-05-06 18:28 | 53.60133 | -6.82258 | 8708 ft | 309 kts | 276° |
| 2026-05-06 18:28 | 53.60393 | -6.85854 | 7860 ft | 307 kts | 276° |
| 2026-05-06 18:28 | 53.60647 | -6.89379 | 7020 ft | 305 kts | 276° |
| 2026-05-06 18:28 | 53.60902 | -6.92927 | 6165 ft | 302 kts | 276° |
| 2026-05-06 18:29 | 53.61153 | -6.96386 | 5326 ft | 301 kts | 276° |
| 2026-05-06 18:29 | 53.61407 | -6.99838 | 4488 ft | 299 kts | 276° |
| 2026-05-06 18:29 | 53.61667 | -7.03265 | 3688 ft | 297 kts | 276° |
| 2026-05-06 18:29 | 53.61930 | -7.06695 | 3158 ft | 286 kts | 276° |
| 2026-05-06 18:30 | 53.62034 | -7.09911 | 2945 ft | 263 kts | 258° |
| 2026-05-06 18:30 | 53.61362 | -7.12572 | 2941 ft | 236 kts | 228° |
| 2026-05-06 18:30 | 53.60074 | -7.14088 | 2961 ft | 227 kts | 196° |
| 2026-05-06 18:30 | 53.58491 | -7.14348 | 3000 ft | 230 kts | 179° |
| 2026-05-06 18:31 | 53.56885 | -7.14180 | 2981 ft | 231 kts | 176° |
| 2026-05-06 18:31 | 53.55290 | -7.13935 | 2972 ft | 231 kts | 175° |
| 2026-05-06 18:31 | 53.53677 | -7.13675 | 2968 ft | 231 kts | 175° |
| 2026-05-06 18:31 | 53.52079 | -7.13417 | 2967 ft | 231 kts | 175° |
| 2026-05-06 18:32 | 53.50473 | -7.13158 | 2966 ft | 231 kts | 175° |
| 2026-05-06 18:32 | 53.48842 | -7.12897 | 2967 ft | 231 kts | 175° |
| 2026-05-06 18:32 | 53.47248 | -7.12646 | 2966 ft | 231 kts | 175° |
| 2026-05-06 18:32 | 53.45616 | -7.12391 | 2966 ft | 231 kts | 175° |
| 2026-05-06 18:33 | 53.44008 | -7.12143 | 2967 ft | 231 kts | 175° |
| 2026-05-06 18:33 | 53.42409 | -7.11897 | 2967 ft | 231 kts | 175° |
| 2026-05-06 18:33 | 53.40816 | -7.11651 | 2968 ft | 231 kts | 175° |
| 2026-05-06 18:33 | 53.39218 | -7.11403 | 2968 ft | 231 kts | 175° |
| 2026-05-06 18:34 | 53.37611 | -7.11149 | 2967 ft | 232 kts | 175° |
| 2026-05-06 18:34 | 53.36001 | -7.10893 | 2967 ft | 232 kts | 175° |
| 2026-05-06 18:34 | 53.34410 | -7.10641 | 2968 ft | 232 kts | 175° |
| 2026-05-06 18:34 | 53.32791 | -7.10386 | 2967 ft | 232 kts | 175° |
| 2026-05-06 18:35 | 53.31191 | -7.10129 | 2966 ft | 232 kts | 173° |
| 2026-05-06 18:35 | 53.29687 | -7.09223 | 2945 ft | 232 kts | 143° |
| 2026-05-06 18:35 | 53.28700 | -7.07091 | 2960 ft | 234 kts | 111° |
| 2026-05-06 18:35 | 53.28547 | -7.04404 | 2970 ft | 237 kts | 79° |
| 2026-05-06 18:36 | 53.29023 | -7.01783 | 2984 ft | 230 kts | 70° |
| 2026-05-06 18:36 | 53.29604 | -6.99365 | 2973 ft | 218 kts | 69° |
| 2026-05-06 18:36 | 53.30220 | -6.97089 | 2975 ft | 209 kts | 59° |
| 2026-05-06 18:36 | 53.31107 | -6.95150 | 2984 ft | 211 kts | 50° |
| 2026-05-06 18:37 | 53.32082 | -6.93328 | 2980 ft | 211 kts | 49° |
| 2026-05-06 18:37 | 53.33084 | -6.91496 | 2977 ft | 211 kts | 48° |
| 2026-05-06 18:37 | 53.34076 | -6.89691 | 2973 ft | 211 kts | 48° |
| 2026-05-06 18:37 | 53.35070 | -6.87878 | 2976 ft | 212 kts | 48° |
| 2026-05-06 18:38 | 53.36061 | -6.86063 | 2972 ft | 211 kts | 48° |
| 2026-05-06 18:38 | 53.37060 | -6.84234 | 2974 ft | 212 kts | 48° |
| 2026-05-06 18:38 | 53.38061 | -6.82399 | 2966 ft | 212 kts | 48° |
| 2026-05-06 18:38 | 53.39061 | -6.80563 | 2966 ft | 212 kts | 48° |
| 2026-05-06 18:39 | 53.40062 | -6.78726 | 2967 ft | 212 kts | 48° |
| 2026-05-06 18:39 | 53.41064 | -6.76888 | 2972 ft | 212 kts | 48° |
| 2026-05-06 18:39 | 53.42059 | -6.75064 | 2966 ft | 212 kts | 48° |
| 2026-05-06 18:40 | 53.44058 | -6.71416 | 2966 ft | 211 kts | 48° |
| 2026-05-06 18:40 | 53.45050 | -6.69606 | 2956 ft | 211 kts | 48° |
| 2026-05-06 18:40 | 53.45759 | -6.67495 | 2950 ft | 208 kts | 81° |
| 2026-05-06 18:40 | 53.45814 | -6.65077 | 2971 ft | 208 kts | 94° |
| 2026-05-06 18:41 | 53.45716 | -6.62668 | 2961 ft | 200 kts | 96° |
| 2026-05-06 18:41 | 53.45591 | -6.60441 | 2966 ft | 183 kts | 97° |
| 2026-05-06 18:41 | 53.45463 | -6.58361 | 2959 ft | 177 kts | 97° |
| 2026-05-06 18:41 | 53.45336 | -6.56301 | 2965 ft | 177 kts | 97° |
| 2026-05-06 18:42 | 53.45209 | -6.54231 | 2966 ft | 177 kts | 97° |
| 2026-05-06 18:42 | 53.45086 | -6.52163 | 2967 ft | 177 kts | 97° |
| 2026-05-06 18:42 | 53.44966 | -6.50111 | 2969 ft | 177 kts | 97° |
| 2026-05-06 18:42 | 53.44848 | -6.48076 | 2971 ft | 176 kts | 97° |
| 2026-05-06 18:43 | 53.44727 | -6.45972 | 2799 ft | 179 kts | 97° |
| 2026-05-06 18:43 | 53.44609 | -6.43913 | 2476 ft | 177 kts | 97° |
| 2026-05-06 18:43 | 53.44492 | -6.41862 | 2147 ft | 176 kts | 97° |
| 2026-05-06 18:43 | 53.44376 | -6.39814 | 1817 ft | 175 kts | 97° |
| 2026-05-06 18:44 | 53.44261 | -6.37779 | 1483 ft | 174 kts | 96° |
| 2026-05-06 18:44 | 53.44147 | -6.35745 | 1175 ft | 171 kts | 96° |
| 2026-05-06 18:44 | 53.44046 | -6.33796 | 945 ft | 165 kts | 97° |
| 2026-05-06 18:44 | 53.43943 | -6.31898 | 737 ft | 158 kts | 97° |
| 2026-05-06 18:45 | 53.43826 | -6.30109 | 526 ft | 152 kts | 97° |
| 2026-05-06 18:45 | 53.43741 | -6.28576 | 350 ft | 147 kts | 97° |
| 2026-05-06 18:45 | 53.43653 | -6.26933 | 241 ft | 130 kts | 97° |
| 2026-05-06 18:45 | 53.43597 | -6.25900 | 227 ft | 46 kts | 96° |
| 2026-05-06 18:46 | 53.43572 | -6.25478 | 222 ft | 31 kts | 96° |
| 2026-05-06 18:46 | 53.43525 | -6.25218 | 220 ft | 17 kts | 117° |
| 2026-05-06 18:46 | 53.43471 | -6.25061 | 220 ft | 14 kts | 121° |
| 2026-05-06 18:46 | 53.43426 | -6.25000 | 220 ft | 7 kts | 188° |
| 2026-05-06 18:47 | 53.43388 | -6.25070 | 220 ft | 10 kts | 258° |
| 2026-05-06 18:47 | 53.43390 | -6.25205 | 220 ft | 12 kts | 274° |
| 2026-05-06 18:47 | 53.43395 | -6.25336 | 221 ft | 9 kts | 274° |
| 2026-05-06 18:47 | 53.43400 | -6.25452 | 222 ft | 10 kts | 275° |
| 2026-05-06 18:48 | 53.43407 | -6.25573 | 223 ft | 9 kts | 272° |
| 2026-05-06 18:48 | 53.43380 | -6.25630 | 224 ft | 7 kts | 195° |
| 2026-05-06 18:48 | 53.43324 | -6.25619 | 224 ft | 8 kts | 163° |
| 2026-05-06 18:48 | 53.43261 | -6.25594 | 223 ft | 7 kts | 169° |
| 2026-05-06 18:49 | 53.43212 | -6.25564 | 222 ft | 8 kts | 145° |
| 2026-05-06 18:49 | 53.43198 | -6.25465 | 222 ft | 10 kts | 73° |
| 2026-05-06 18:49 | 53.43224 | -6.25335 | 221 ft | 12 kts | 71° |
| 2026-05-06 18:49 | 53.43230 | -6.25232 | 221 ft | 7 kts | 95° |
| 2026-05-06 18:50 | 53.43227 | -6.25135 | 220 ft | 9 kts | 92° |
| 2026-05-06 18:50 | 53.43219 | -6.25020 | 221 ft | 9 kts | 97° |
| 2026-05-06 18:50 | 53.43211 | -6.24976 | 221 ft | 1 kts | 146° |
| 2026-05-06 18:50 | 53.43185 | -6.24974 | 221 ft | 5 kts | 185° |
| 2026-05-06 18:51 | 53.43148 | -6.24980 | 221 ft | 4 kts | 185° |
| 2026-05-06 18:51 | 53.43121 | -6.24984 | 221 ft | 0 kts | 185° |